Página principal
METAR-TAF:

METAR-TAF

Aeroportos :

Aeroporto Internacional Hato

Curaçao, Antilhas Neerlandesas

latitude: 12-12N, longitude: 068-58W, altura: 9 m

Observação actual do tempo

O boletim foi feito há 1 hora e 11 minutos, às 22:00 UTC
Vento 13 kt de es-sudeste
Temperatura 27°C
Humidade 70%
Pressão 1013 hPa
Visibilidade 10 km ou mais

METAR: TNCC 202200Z 11013KT 9999 NSC 27/21 Q1013 NOSIG

Hora: 19:11 (23:11 UTC)

Previsão

O boletim foi feito há 7 horas e 41 minutos, às 15:30 UTC
Previsão válida de 20 às 18 UTC a 21 às 18 UTC
Vento 17 kt de es-sudeste
Visibilidade 10 km ou mais
Nuvens dispersasa uma altura de 2400 ft

TAF: TNCC 201530Z 2018/2118 12017KT 9999 SCT024

Observações e previsões do tempo de mais de 4000 aeroportos (mensagens METAR e TAF).

As estações disponíveis são os pontos amarelos e vermelhos sobre o mapa.

Mova o rato sobre o mapa para ver o nome da estação.

Depois clique no ponto para visualizar as observações e previsões meteorológicas.

Para alterar o mapa : clique nos botões verdes com uma cruz preta para aumentar o zoom; no botão verde com uma pitada de zoom; ou nas setas verdes para mapas adjacentes.


METAR-TAF: